Time;durP1;ratioP1;P1;durP2;ratioP2;P2;SDS_P1;SDS_P2;PMS_P1;PMS_P2;Temp;Humidity;BMP_temperature;BMP_pressure;BME280_temperature;BME280_humidity;BME280_pressure;Samples;Min_cycle;Max_cycle;Signal;HPM_P1;HPM_P2
2023/03/25 00:00:59;;;;;;;13.00;8.05;;;;;;;9.76;96.42;98552.31;5052414;28;20385;-79
2023/03/25 00:03:25;;;;;;;10.65;7.72;;;;;;;9.83;95.70;98547.59;5052810;28;20488;-79
2023/03/25 00:05:55;;;;;;;11.02;7.63;;;;;;;9.87;95.31;98560.31;5052077;28;20036;-79
2023/03/25 00:08:22;;;;;;;12.50;7.07;;;;;;;9.78;95.63;98549.63;5052863;28;20029;-79
2023/03/25 00:10:53;;;;;;;13.25;7.97;;;;;;;9.78;95.44;98547.03;5052371;28;20031;-79
2023/03/25 00:13:18;;;;;;;11.55;7.47;;;;;;;9.64;95.85;98527.06;5052447;28;20111;-79
2023/03/25 00:15:47;;;;;;;9.65;6.88;;;;;;;9.80;95.54;98565.97;5052412;28;20029;-79
2023/03/25 00:18:13;;;;;;;11.23;7.13;;;;;;;9.68;95.49;98537.16;5052030;28;20033;-80
2023/03/25 00:20:40;;;;;;;13.90;7.47;;;;;;;9.79;95.33;98546.09;5052219;28;20033;-79
2023/03/25 00:23:08;;;;;;;16.45;9.52;;;;;;;9.73;95.33;98531.69;5051998;28;20381;-79
2023/03/25 00:25:33;;;;;;;17.17;11.15;;;;;;;9.79;95.33;98538.31;5052184;28;20029;-79
2023/03/25 00:27:59;;;;;;;18.98;12.20;;;;;;;9.81;95.57;98541.63;5051854;28;20031;-79
2023/03/25 00:30:24;;;;;;;17.60;11.50;;;;;;;9.63;96.22;98517.59;5051861;28;20036;-79
2023/03/25 00:32:51;;;;;;;20.20;15.30;;;;;;;9.80;96.12;98553.78;5051904;28;20099;-79
2023/03/25 00:35:19;;;;;;;17.75;13.55;;;;;;;9.63;96.14;98533.19;5052422;28;20152;-79
2023/03/25 00:37:46;;;;;;;30.35;20.20;;;;;;;9.67;96.46;98543.31;5052103;28;20064;-79
2023/03/25 00:40:13;;;;;;;34.40;22.10;;;;;;;9.52;96.91;98527.78;5051988;28;20028;-79
2023/03/25 00:42:43;;;;;;;28.20;17.10;;;;;;;9.46;96.67;98524.63;5051941;28;20074;-79
2023/03/25 00:45:10;;;;;;;22.58;15.52;;;;;;;9.33;97.40;98510.72;5051743;28;20032;-79
2023/03/25 00:47:36;;;;;;;19.58;12.65;;;;;;;9.31;97.82;98515.16;5052064;28;20025;-79
2023/03/25 00:50:02;;;;;;;16.30;11.32;;;;;;;9.36;97.75;98530.50;5051801;28;20028;-79
2023/03/25 00:52:28;;;;;;;15.77;10.65;;;;;;;9.27;97.92;98510.22;5051978;28;20473;-79
2023/03/25 00:54:53;;;;;;;14.65;10.52;;;;;;;9.36;97.54;98530.50;5051967;28;20043;-79
2023/03/25 00:57:18;;;;;;;14.80;9.43;;;;;;;9.14;97.84;98500.59;5051744;28;20098;-79
2023/03/25 00:59:43;;;;;;;15.10;9.63;;;;;;;9.38;97.89;98542.44;5051689;28;20036;-79
2023/03/25 01:02:09;;;;;;;13.27;8.73;;;;;;;9.18;97.38;98511.59;5051499;28;20152;-79
2023/03/25 01:04:36;;;;;;;12.30;8.77;;;;;;;9.27;98.16;98539.66;5051865;28;20029;-79
2023/03/25 01:07:02;;;;;;;12.52;7.30;;;;;;;9.34;98.07;98556.53;5051612;28;20032;-79
2023/03/25 01:09:27;;;;;;;13.30;8.48;;;;;;;9.30;98.13;98549.03;5051586;28;20025;-79
2023/03/25 01:11:52;;;;;;;10.60;7.80;;;;;;;9.19;98.26;98531.50;5051794;28;20083;-79
2023/03/25 01:14:23;;;;;;;15.32;8.02;;;;;;;9.10;98.26;98512.09;5051541;28;20021;-79
2023/03/25 01:16:48;;;;;;;11.82;8.38;;;;;;;9.23;98.35;98544.22;5051891;28;20071;-79
2023/03/25 01:19:14;;;;;;;12.32;9.13;;;;;;;9.20;98.65;98544.38;5051568;28;20045;-79
2023/03/25 01:21:41;;;;;;;13.90;8.00;;;;;;;9.20;98.62;98543.53;5051720;28;20036;-79
2023/03/25 01:24:09;;;;;;;13.10;8.75;;;;;;;9.16;98.31;98537.69;5051230;28;20563;-79
2023/03/25 01:26:34;;;;;;;11.70;7.53;;;;;;;8.84;97.93;98503.19;5051445;28;20468;-79
2023/03/25 01:29:00;;;;;;;13.73;7.50;;;;;;;9.05;98.53;98531.44;5051324;28;20025;-79
2023/03/25 01:31:28;;;;;;;12.15;8.60;;;;;;;8.96;99.02;98504.25;5051759;28;20053;-79
2023/03/25 01:33:57;;;;;;;15.52;9.38;;;;;;;9.05;99.20;98532.28;5051397;28;20029;-79
2023/03/25 01:36:24;;;;;;;10.15;8.48;;;;;;;8.90;99.12;98515.00;5051484;28;20488;-79
2023/03/25 01:38:50;;;;;;;14.30;10.07;;;;;;;8.84;98.96;98508.38;5054136;28;20037;-79
2023/03/25 01:41:16;;;;;;;13.88;9.68;;;;;;;8.97;98.80;98527.53;5055035;28;20098;-79
2023/03/25 01:43:41;;;;;;;17.10;11.23;;;;;;;8.94;99.03;98532.06;5055249;28;20036;-79
2023/03/25 01:46:16;;;;;;;14.15;10.80;;;;;;;8.85;99.63;98530.84;5055417;28;20534;-79
2023/03/25 01:48:43;;;;;;;13.13;8.88;;;;;;;8.65;99.73;98495.63;5055257;28;20036;-79
2023/03/25 01:51:16;;;;;;;13.82;9.30;;;;;;;8.75;99.01;98514.94;5055031;28;20025;-79
2023/03/25 01:53:45;;;;;;;13.90;9.32;;;;;;;8.79;99.53;98522.56;5055186;28;20036;-79
2023/03/25 01:56:14;;;;;;;13.77;9.55;;;;;;;8.60;100.00;98495.06;5054799;28;20037;-79
2023/03/25 01:58:40;;;;;;;13.27;8.88;;;;;;;8.38;100.00;98456.50;5055184;28;20025;-79
2023/03/25 02:01:10;;;;;;;12.70;8.35;;;;;;;8.53;99.82;98479.94;5054705;28;20021;-79
2023/03/25 02:03:36;;;;;;;19.48;12.25;;;;;;;8.72;99.44;98499.56;5054919;28;20381;-79
2023/03/25 02:06:07;;;;;;;16.23;11.27;;;;;;;8.63;99.81;98494.03;5054634;28;20108;-79
2023/03/25 02:08:37;;;;;;;15.73;10.35;;;;;;;8.59;100.00;98493.38;5054657;28;20083;-79
2023/03/25 02:11:04;;;;;;;28.48;18.50;;;;;;;8.42;99.84;98476.16;5054699;28;20057;-79
2023/03/25 02:13:30;;;;;;;28.35;20.08;;;;;;;8.39;99.74;98473.75;5054797;28;20029;-79
2023/03/25 02:16:25;;;;;;;27.92;20.08;;;;;;;8.44;99.29;98482.13;5054357;28;20025;-79
2023/03/25 02:19:13;;;;;;;36.53;25.05;;;;;;;8.49;99.31;98485.28;5054674;28;20053;-79
2023/03/25 02:22:10;;;;;;;40.53;25.98;;;;;;;8.44;99.41;98476.94;5054610;28;20029;-79
2023/03/25 02:24:53;;;;;;;42.05;28.38;;;;;;;8.38;99.16;98456.50;5054552;28;20048;-79
2023/03/25 02:27:44;;;;;;;43.55;30.60;;;;;;;8.42;99.10;98460.59;5054154;28;20499;-79
2023/03/25 02:30:53;;;;;;;40.20;28.77;;;;;;;8.44;99.51;98484.72;5054318;28;20071;-79
2023/03/25 02:33:43;;;;;;;40.30;29.83;;;;;;;8.44;99.52;98484.72;5054260;28;20226;-79
2023/03/25 02:36:40;;;;;;;42.90;30.98;;;;;;;8.42;98.69;98486.53;5054119;28;20602;-79
2023/03/25 02:39:21;;;;;;;40.90;28.80;;;;;;;8.36;98.57;98479.09;5054136;28;20032;-79
2023/03/25 02:42:09;;;;;;;39.10;28.90;;;;;;;8.32;98.65;98466.38;5054436;28;20025;-79
2023/03/25 02:44:45;;;;;;;42.50;29.70;;;;;;;8.12;98.87;98452.75;5054276;28;20037;-79
2023/03/25 02:47:18;;;;;;;47.05;31.75;;;;;;;8.07;99.66;98449.59;5054193;28;20021;-79
2023/03/25 02:49:48;;;;;;;43.65;31.85;;;;;;;8.09;99.94;98455.53;5052859;28;20033;-79
2023/03/25 02:52:23;;;;;;;54.10;39.28;;;;;;;8.23;99.55;98478.94;5053706;28;20025;-79
2023/03/25 02:54:52;;;;;;;54.22;40.45;;;;;;;8.04;99.08;98454.94;5054416;28;20495;-79
2023/03/25 02:57:21;;;;;;;43.47;33.25;;;;;;;8.00;98.81;98458.63;5053751;28;20056;-79
2023/03/25 02:59:49;;;;;;;36.22;27.70;;;;;;;8.07;99.22;98491.06;5053928;28;20048;-79
2023/03/25 03:02:16;;;;;;;39.30;30.23;;;;;;;7.95;99.31;98465.81;5053839;28;20025;-79
2023/03/25 03:04:46;;;;;;;37.33;26.80;;;;;;;7.84;98.96;98448.28;5053698;28;20153;-79
2023/03/25 03:07:23;;;;;;;29.55;23.80;;;;;;;7.97;99.42;98472.59;5053755;28;20032;-79
2023/03/25 03:10:25;;;;;;;30.98;24.67;;;;;;;7.93;99.36;98480.63;5053776;28;20119;-79
2023/03/25 03:13:01;;;;;;;25.75;20.55;;;;;;;7.98;99.56;98483.81;5053627;28;20083;-79
2023/03/25 03:15:41;;;;;;;28.65;21.55;;;;;;;7.96;99.68;98483.03;5053542;28;20455;-79
2023/03/25 03:18:33;;;;;;;26.48;19.17;;;;;;;7.77;99.69;98467.66;5053150;28;20078;-79
2023/03/25 03:21:09;;;;;;;26.92;18.77;;;;;;;7.82;99.39;98476.03;5053561;28;20416;-79
2023/03/25 03:23:47;;;;;;;25.27;17.65;;;;;;;7.78;100.00;98473.69;5053316;28;20027;-79
2023/03/25 03:26:13;;;;;;;20.40;16.17;;;;;;;7.86;99.82;98485.31;5053242;28;20035;-79
2023/03/25 03:28:56;;;;;;;24.33;17.77;;;;;;;7.88;99.59;98491.25;5053331;28;20037;-79
2023/03/25 03:31:35;;;;;;;24.10;18.40;;;;;;;7.85;99.23;98483.63;5051857;28;20366;-79
2023/03/25 03:34:09;;;;;;;21.50;18.50;;;;;;;7.79;98.77;98473.59;5052961;28;20108;-79
2023/03/25 03:36:41;;;;;;;21.63;17.15;;;;;;;7.92;99.24;98494.50;5053286;28;20025;-79
2023/03/25 03:39:15;;;;;;;22.92;17.10;;;;;;;7.87;98.83;98489.56;5051689;28;20029;-79
2023/03/25 03:41:45;;;;;;;19.67;16.58;;;;;;;7.78;98.68;98468.50;5053123;28;20034;-79
2023/03/25 03:44:18;;;;;;;18.67;14.18;;;;;;;7.75;98.62;98467.75;5052798;28;20475;-79
2023/03/25 03:46:54;;;;;;;15.95;12.40;;;;;;;7.90;98.34;98497.19;5052903;28;20028;-79
2023/03/25 03:49:25;;;;;;;15.52;11.60;;;;;;;7.91;97.91;98503.19;5052777;28;20021;-79
2023/03/25 03:52:07;;;;;;;12.95;10.80;;;;;;;7.85;98.15;98496.59;5053011;28;20033;-79
2023/03/25 03:54:47;;;;;;;16.17;11.98;;;;;;;7.66;98.53;98475.16;5052968;28;20025;-79
2023/03/25 03:57:12;;;;;;;16.33;12.07;;;;;;;7.80;98.91;98505.56;5052912;28;20025;-79
2023/03/25 04:00:26;;;;;;;20.52;11.27;;;;;;;7.75;98.36;98510.94;5052949;28;20541;-79
2023/03/25 04:02:58;;;;;;;15.55;12.25;;;;;;;7.62;98.79;98481.44;5030420;28;20038;-79
2023/03/25 04:05:29;;;;;;;;;;;;;;;7.67;99.14;98505.38;5030712;28;20096;-79
2023/03/25 04:08:10;;;;;;;15.43;12.18;;;;;;;7.58;98.69;98485.94;5030216;28;19928;-79
2023/03/25 04:10:39;;;;;;;17.15;12.00;;;;;;;7.65;98.42;98502.00;5030016;28;20045;-79
2023/03/25 04:13:09;;;;;;;14.70;10.35;;;;;;;7.54;99.55;98481.00;5029895;28;20037;-79
2023/03/25 04:15:35;;;;;;;13.98;10.85;;;;;;;7.55;99.39;98491.28;5030023;28;20060;-79
2023/03/25 04:18:02;;;;;;;10.50;9.23;;;;;;;7.54;99.16;98497.38;5030072;28;20049;-79
2023/03/25 04:20:32;;;;;;;12.30;8.88;;;;;;;7.52;99.11;98483.69;5029965;28;20053;-78
2023/03/25 04:22:58;;;;;;;10.32;8.73;;;;;;;7.56;99.33;98497.31;5030067;28;20099;-79
2023/03/25 04:25:24;;;;;;;13.93;8.75;;;;;;;7.59;98.90;98508.34;5029685;28;20045;-79
2023/03/25 04:27:52;;;;;;;11.13;8.73;;;;;;;7.61;98.71;98511.69;5030017;28;20067;-79
2023/03/25 04:30:18;;;;;;;11.80;8.70;;;;;;;7.52;98.90;98499.22;5029495;28;20038;-79
2023/03/25 04:32:47;;;;;;;13.88;8.82;;;;;;;7.58;99.11;98506.66;5029820;28;20460;-79
2023/03/25 04:35:17;;;;;;;12.85;9.35;;;;;;;7.37;98.60;98480.13;5029718;28;20029;-79
2023/03/25 04:37:47;;;;;;;13.07;9.25;;;;;;;7.44;99.19;98491.00;5051032;28;20048;-79
2023/03/25 04:40:17;;;;;;;12.10;8.43;;;;;;;7.50;99.40;98512.28;5051874;28;20472;-79
2023/03/25 04:42:45;;;;;;;12.23;7.82;;;;;;;7.42;99.11;98500.63;5052004;28;20052;-79
2023/03/25 04:45:15;;;;;;;13.75;11.02;;;;;;;7.37;98.74;98500.84;5051955;28;20025;-79
2023/03/25 04:47:43;;;;;;;21.00;13.45;;;;;;;7.28;98.65;98495.31;5052071;28;20048;-79
2023/03/25 04:50:18;;;;;;;16.33;11.38;;;;;;;7.20;98.87;98498.28;5051684;28;20025;-79
2023/03/25 04:52:43;;;;;;;15.88;11.70;;;;;;;7.15;99.58;98495.09;5051880;28;20032;-79
2023/03/25 04:55:19;;;;;;;12.55;10.07;;;;;;;7.20;99.18;98509.47;5051936;28;20071;-79
2023/03/25 04:57:50;;;;;;;13.70;10.05;;;;;;;7.15;99.16;98501.13;5052093;28;20439;-79
2023/03/25 05:00:18;;;;;;;13.65;9.55;;;;;;;7.20;99.36;98512.06;5051809;28;20064;-79
2023/03/25 05:02:52;;;;;;;16.45;11.10;;;;;;;7.04;99.12;98490.50;5051892;28;20032;-79
2023/03/25 05:05:21;;;;;;;11.48;10.20;;;;;;;6.89;99.58;98471.38;5051653;28;20029;-79
2023/03/25 05:07:49;;;;;;;15.48;11.20;;;;;;;7.15;99.33;98526.19;5051707;28;20117;-80
2023/03/25 05:10:20;;;;;;;18.23;13.38;;;;;;;6.99;99.19;98495.03;5051486;28;20377;-79
2023/03/25 05:12:45;;;;;;;16.60;13.02;;;;;;;7.00;99.67;98500.16;5052811;28;20109;-79
2023/03/25 05:15:12;;;;;;;25.45;17.48;;;;;;;7.14;100.00;98527.09;5055742;28;20061;-79
2023/03/25 05:17:37;;;;;;;37.33;23.15;;;;;;;7.17;100.00;98516.59;5055806;28;20037;-79
2023/03/25 05:20:07;;;;;;;41.35;24.30;;;;;;;7.04;100.00;98500.84;5056005;28;20179;-79
2023/03/25 05:22:32;;;;;;;52.67;27.02;;;;;;;7.19;99.86;98513.00;5055721;28;20614;-79
2023/03/25 05:24:58;;;;;;;48.45;28.02;;;;;;;7.29;99.88;98522.88;5055539;28;20055;-79
2023/03/25 05:27:23;;;;;;;47.75;25.77;;;;;;;7.28;99.70;98516.88;5055357;28;20029;-79
2023/03/25 05:29:48;;;;;;;47.20;24.20;;;;;;;7.32;99.34;98512.38;5055670;28;20025;-79
2023/03/25 05:32:16;;;;;;;48.33;25.52;;;;;;;7.43;98.87;98504.91;5055454;28;20536;-79
2023/03/25 05:34:45;;;;;;;42.60;23.23;;;;;;;7.71;98.52;98518.09;5055410;28;20036;-79
2023/03/25 05:37:12;;;;;;;35.33;20.10;;;;;;;7.96;97.09;98491.69;5055425;28;20025;-79
2023/03/25 05:39:37;;;;;;;31.25;18.08;;;;;;;8.20;96.15;98511.97;5055529;28;20456;-79
2023/03/25 05:42:03;;;;;;;117.38;65.28;;;;;;;8.34;95.96;98504.25;5055269;28;20060;-79
2023/03/25 05:44:28;;;;;;;67.63;40.45;;;;;;;9.02;95.13;98510.84;5054933;28;20032;-78
2023/03/25 05:46:53;;;;;;;58.22;34.75;;;;;;;9.49;92.74;98482.03;5055511;28;20033;-79
2023/03/25 05:49:20;;;;;;;42.83;24.38;;;;;;;10.45;88.25;98496.84;5054857;28;20053;-78
2023/03/25 05:51:48;;;;;;;27.05;17.48;;;;;;;11.41;84.27;98525.25;5055284;28;20051;-78
2023/03/25 05:54:14;;;;;;;28.83;16.67;;;;;;;11.78;81.81;98488.81;5055261;28;20372;-78
2023/03/25 05:56:40;;;;;;;23.02;11.88;;;;;;;12.34;79.69;98529.19;5055149;28;20078;-78
2023/03/25 05:59:06;;;;;;;13.93;9.20;;;;;;;12.63;77.41;98513.19;5055068;28;20163;-78
2023/03/25 06:01:32;;;;;;;17.67;11.13;;;;;;;13.08;77.01;98505.50;5054745;28;20036;-78
2023/03/25 06:04:00;;;;;;;22.35;11.30;;;;;;;13.88;76.15;98518.56;5055142;28;20033;-79
2023/03/25 06:06:26;;;;;;;15.20;9.60;;;;;;;14.71;72.97;98497.13;5054843;28;20380;-78
2023/03/25 06:08:51;;;;;;;12.45;7.80;;;;;;;15.48;71.42;98528.28;5054915;28;20029;-78
2023/03/25 06:11:18;;;;;;;13.73;8.55;;;;;;;15.44;69.48;98513.75;5054669;28;20093;-79
2023/03/25 06:13:48;;;;;;;9.85;7.28;;;;;;;14.92;70.23;98515.50;5054695;28;20025;-79
2023/03/25 06:16:19;;;;;;;12.15;7.32;;;;;;;14.19;71.26;98494.25;5054481;28;20375;-79
2023/03/25 06:18:55;;;;;;;10.50;7.93;;;;;;;13.67;72.73;98505.38;5054489;28;20124;-79
2023/03/25 06:21:21;;;;;;;10.80;7.10;;;;;;;13.37;73.95;98519.03;5054573;28;20032;-79
2023/03/25 06:23:48;;;;;;;8.32;6.45;;;;;;;12.99;74.96;98499.19;5054537;28;20033;-79
2023/03/25 06:26:17;;;;;;;8.48;6.07;;;;;;;12.84;75.85;98497.72;5054266;28;20032;-79
2023/03/25 06:28:43;;;;;;;9.00;6.55;;;;;;;12.82;75.70;98508.28;5054442;28;20114;-79
2023/03/25 06:31:16;;;;;;;8.77;6.40;;;;;;;13.26;75.53;98493.69;5054364;28;20112;-79
2023/03/25 06:33:47;;;;;;;11.52;7.65;;;;;;;13.28;74.48;98498.81;5054526;28;20022;-79
2023/03/25 06:36:17;;;;;;;12.17;8.13;;;;;;;13.03;75.01;98507.63;5054170;28;20099;-80
2023/03/25 06:38:47;;;;;;;10.43;7.97;;;;;;;12.70;75.59;98499.56;5054251;28;20295;-80
2023/03/25 06:41:14;;;;;;;12.43;7.25;;;;;;;12.58;76.86;98525.75;5054032;28;20032;-80
2023/03/25 06:43:40;;;;;;;10.77;7.32;;;;;;;12.36;78.22;98518.63;5054163;28;20025;-80
2023/03/25 06:46:06;;;;;;;10.25;7.40;;;;;;;12.08;79.18;98510.16;5054352;28;20033;-80
2023/03/25 06:48:32;;;;;;;10.55;8.30;;;;;;;11.93;79.35;98517.31;5053946;28;20552;-80
2023/03/25 06:50:57;;;;;;;11.98;8.48;;;;;;;11.96;80.16;98495.38;5054422;28;20033;-79
2023/03/25 06:53:23;;;;;;;10.10;7.00;;;;;;;12.13;80.49;98515.88;5053830;28;20029;-80
2023/03/25 06:55:48;;;;;;;10.88;8.00;;;;;;;12.22;80.78;98504.81;5053971;28;20048;-78
2023/03/25 06:58:14;;;;;;;14.60;10.85;;;;;;;12.26;79.77;98500.16;5053507;28;20021;-80
2023/03/25 07:00:39;;;;;;;14.05;8.65;;;;;;;12.26;79.86;98505.41;5054286;28;20029;-80
2023/03/25 07:03:04;;;;;;;10.18;8.48;;;;;;;12.14;79.98;98509.72;5053924;28;20031;-80
2023/03/25 07:05:30;;;;;;;10.25;8.00;;;;;;;12.08;80.67;98515.38;5053739;28;20424;-80
2023/03/25 07:07:56;;;;;;;12.82;7.80;;;;;;;11.96;81.81;98514.47;5053759;28;20152;-81
2023/03/25 07:10:21;;;;;;;14.13;8.35;;;;;;;11.62;81.92;98482.03;5053425;28;20037;-81
2023/03/25 07:12:47;;;;;;;13.38;8.60;;;;;;;11.74;82.82;98522.09;5053709;28;20025;-80
2023/03/25 07:15:12;;;;;;;11.13;8.25;;;;;;;11.57;83.10;98499.78;5053585;28;20101;-81
2023/03/25 07:17:37;;;;;;;12.20;7.95;;;;;;;11.58;83.83;98495.41;5043533;28;20061;-79
2023/03/25 07:20:06;;;;;;;16.00;8.95;;;;;;;11.51;84.06;98481.13;5033402;28;20111;-79
2023/03/25 07:22:32;;;;;;;13.40;9.02;;;;;;;11.81;84.27;98525.13;5033237;28;20488;-79
2023/03/25 07:24:57;;;;;;;15.30;10.30;;;;;;;11.85;84.32;98524.00;5033614;28;20036;-79
2023/03/25 07:27:23;;;;;;;10.43;8.40;;;;;;;11.54;84.47;98462.66;5033076;28;20040;-79
2023/03/25 07:29:48;;;;;;;12.90;9.38;;;;;;;11.83;84.07;98505.00;5033206;28;20104;-78
2023/03/25 07:32:14;;;;;;;13.38;9.32;;;;;;;11.85;84.37;98501.34;5036714;28;20483;-78
2023/03/25 07:34:39;;;;;;;17.17;10.75;;;;;;;11.96;84.31;98526.69;5053119;28;20021;-79
2023/03/25 07:37:07;;;;;;;15.93;10.15;;;;;;;11.81;84.79;98512.91;5052564;28;20034;-79
2023/03/25 07:39:32;;;;;;;16.52;10.80;;;;;;;11.90;84.32;98527.13;5052938;28;20063;-79
2023/03/25 07:41:57;;;;;;;14.30;10.05;;;;;;;11.89;84.99;98521.06;5052921;28;20021;-79
2023/03/25 07:44:22;;;;;;;18.60;14.93;;;;;;;11.81;84.47;98507.69;5053205;28;20025;-79
2023/03/25 07:46:48;;;;;;;22.02;18.35;;;;;;;11.90;84.63;98521.91;5053089;28;20061;-79
2023/03/25 07:49:15;;;;;;;17.92;13.52;;;;;;;11.89;84.75;98525.47;5053029;28;20116;-78
2023/03/25 07:51:40;;;;;;;15.48;11.98;;;;;;;12.03;84.95;98527.91;5052706;28;20025;-78
2023/03/25 07:54:06;;;;;;;16.25;9.70;;;;;;;11.97;84.46;98494.44;5052727;28;20036;-78
2023/03/25 07:56:31;;;;;;;10.88;8.90;;;;;;;12.25;83.93;98522.00;5052419;28;20524;-78
2023/03/25 07:58:56;;;;;;;11.65;8.50;;;;;;;12.37;83.75;98491.56;5052580;28;20111;-78
2023/03/25 08:01:22;;;;;;;9.43;8.07;;;;;;;12.92;81.95;98471.84;5052324;28;20082;-79
2023/03/25 08:03:47;;;;;;;11.82;9.35;;;;;;;13.70;79.56;98490.28;5052524;28;20021;-78
2023/03/25 08:06:12;;;;;;;41.17;30.30;;;;;;;14.15;77.65;98489.38;5052622;28;20100;-78
2023/03/25 08:08:38;;;;;;;16.23;12.93;;;;;;;14.60;76.52;98486.66;5052234;28;20074;-78
2023/03/25 08:11:04;;;;;;;12.32;10.85;;;;;;;15.09;75.24;98509.66;5052515;28;20469;-78
2023/03/25 08:13:29;;;;;;;10.95;8.30;;;;;;;15.14;74.28;98480.44;5052414;28;20491;-78
2023/03/25 08:15:55;;;;;;;7.88;7.07;;;;;;;15.19;73.61;98465.97;5052285;28;20040;-78
2023/03/25 08:18:22;;;;;;;10.98;8.07;;;;;;;15.42;72.86;98499.91;5052009;28;20144;-78
2023/03/25 08:20:49;;;;;;;10.98;8.23;;;;;;;15.39;72.34;98506.25;5052371;28;20025;-78
2023/03/25 08:23:18;;;;;;;9.68;7.28;;;;;;;15.31;72.57;98498.22;5052216;28;20020;-79
2023/03/25 08:25:47;;;;;;;9.48;7.05;;;;;;;15.19;72.81;98484.31;5051846;28;20032;-78
2023/03/25 08:28:16;;;;;;;9.60;5.68;;;;;;;15.21;71.94;98505.16;5052114;28;20033;-79
2023/03/25 08:30:43;;;;;;;8.57;6.15;;;;;;;15.10;72.09;98507.88;5051894;28;20023;-78
2023/03/25 08:33:09;;;;;;;14.23;7.00;;;;;;;14.84;72.46;98492.53;5052011;28;20068;-78
2023/03/25 08:35:36;;;;;;;14.20;6.82;;;;;;;14.84;72.98;98508.25;5051933;28;20033;-79
2023/03/25 08:38:04;;;;;;;10.00;5.97;;;;;;;14.97;72.67;98506.28;5051611;28;20037;-80
2023/03/25 08:40:31;;;;;;;14.80;8.27;;;;;;;15.17;72.84;98477.56;5051903;28;20025;-80
2023/03/25 08:42:57;;;;;;;12.02;6.60;;;;;;;15.34;72.58;98484.00;5052277;28;20060;-80
2023/03/25 08:45:22;;;;;;;9.57;5.70;;;;;;;15.41;71.60;98493.00;5051739;28;20489;-80
2023/03/25 08:47:47;;;;;;;7.13;4.97;;;;;;;15.31;70.88;98477.22;5050288;28;20424;-80
2023/03/25 08:50:12;;;;;;;9.50;8.55;;;;;;;15.25;71.17;98497.88;5043611;28;20116;-80
2023/03/25 08:52:38;;;;;;;6.38;5.78;;;;;;;14.89;71.17;98476.41;5041098;28;20095;-80
2023/03/25 08:55:06;;;;;;;6.38;5.68;;;;;;;14.87;71.86;98496.66;5039758;28;20100;-80
2023/03/25 08:57:33;;;;;;;4.85;3.80;;;;;;;14.73;71.28;98482.06;5040596;28;20079;-80
2023/03/25 08:59:59;;;;;;;4.53;3.00;;;;;;;14.54;70.62;98481.91;5041209;28;20056;-80
2023/03/25 09:02:25;;;;;;;3.83;2.58;;;;;;;14.35;70.17;98499.09;5039159;28;20026;-80
2023/03/25 09:04:50;;;;;;;9.65;6.22;;;;;;;14.07;70.39;98486.53;5040979;28;20024;-81
2023/03/25 09:07:18;;;;;;;4.25;3.30;;;;;;;14.00;70.99;98498.47;5040426;28;20033;-81
2023/03/25 09:09:44;;;;;;;8.10;5.88;;;;;;;13.85;71.49;98500.50;5039316;28;20022;-81
2023/03/25 09:12:09;;;;;;;12.75;9.80;;;;;;;13.87;72.15;98502.03;5048572;28;20078;-81
2023/03/25 09:14:35;;;;;;;9.00;5.30;;;;;;;13.80;72.63;98497.41;5051519;28;20021;-81
2023/03/25 09:17:00;;;;;;;3.03;2.67;;;;;;;13.69;71.04;98472.06;5051644;28;20037;-81
2023/03/25 09:19:26;;;;;;;2.97;2.42;;;;;;;13.93;70.75;98501.56;5041494;28;20116;-81
2023/03/25 09:21:51;;;;;;;2.90;1.88;;;;;;;13.95;69.87;98488.34;5039796;28;20589;-81
2023/03/25 09:24:16;;;;;;;2.90;1.88;;;;;;;13.84;68.96;98475.28;5041098;28;20021;-81
2023/03/25 09:26:42;;;;;;;2.42;1.95;;;;;;;13.98;68.91;98493.34;5039732;28;20051;-80
2023/03/25 09:29:07;;;;;;;2.90;2.22;;;;;;;13.99;68.92;98492.41;5035002;28;20028;-80
2023/03/25 09:31:32;;;;;;;2.75;2.25;;;;;;;13.79;69.70;98501.81;5031091;28;20029;-81
2023/03/25 09:33:58;;;;;;;8.40;7.53;;;;;;;13.62;69.95;98499.69;5031583;28;20477;-81
2023/03/25 09:36:23;;;;;;;7.57;6.78;;;;;;;13.43;71.09;98492.41;5031049;28;20478;-81
2023/03/25 09:38:48;;;;;;;4.80;3.50;;;;;;;13.44;72.93;98513.22;5031216;28;20112;-81
2023/03/25 09:41:33;;;;;;;3.40;2.28;;;;;;;13.26;73.47;98479.78;5031501;28;20033;-81
2023/03/25 09:44:20;;;;;;;2.45;1.70;;;;;;;13.43;72.44;98514.16;5031441;28;20029;-80
2023/03/25 09:46:46;;;;;;;2.50;1.90;;;;;;;13.39;71.08;98504.88;5031025;28;20014;-80
2023/03/25 09:49:18;;;;;;;23.77;14.95;;;;;;;13.30;69.81;98502.13;5031140;28;20030;-81
2023/03/25 09:51:46;;;;;;;2.85;2.58;;;;;;;13.52;68.90;98519.63;5031107;28;20033;-80
2023/03/25 09:54:17;;;;;;;1.75;1.17;;;;;;;13.56;67.78;98521.06;5031767;28;20041;-81
2023/03/25 09:56:43;;;;;;;1.80;1.50;;;;;;;13.61;67.72;98525.00;5031203;28;20112;-81
2023/03/25 09:59:24;;;;;;;4.07;1.23;;;;;;;13.60;66.93;98507.63;5032812;28;20540;-81
2023/03/25 10:02:01;;;;;;;4.35;2.22;;;;;;;13.84;66.94;98509.31;5035412;28;20021;-81
2023/03/25 10:05:00;;;;;;;7.82;6.10;;;;;;;14.15;66.89;98512.94;5034903;28;20036;-81
2023/03/25 10:07:34;;;;;;;3.08;1.77;;;;;;;14.45;65.96;98514.88;5034690;28;20018;-80
2023/03/25 10:10:35;;;;;;;5.13;4.53;;;;;;;14.58;65.51;98520.00;5034965;28;20041;-81
2023/03/25 10:13:00;;;;;;;4.60;2.10;;;;;;;14.54;65.68;98514.22;5034911;28;20381;-81
2023/03/25 10:15:44;;;;;;;2.42;2.20;;;;;;;14.40;66.13;98514.44;5034556;28;20033;-81
2023/03/25 10:18:35;;;;;;;5.40;2.38;;;;;;;14.27;66.30;98513.75;5034117;28;20022;-81
2023/03/25 10:21:11;;;;;;;5.82;4.30;;;;;;;14.25;66.78;98506.03;5034769;28;20061;-81
2023/03/25 10:23:45;;;;;;;3.78;2.10;;;;;;;14.19;66.65;98499.47;5034763;28;20025;-79
2023/03/25 10:26:25;;;;;;;6.65;5.28;;;;;;;14.35;65.87;98493.84;5034324;28;20044;-80
2023/03/25 10:29:00;;;;;;;4.90;3.78;;;;;;;14.55;64.56;98494.06;5034787;28;20052;-80
2023/03/25 10:31:30;;;;;;;7.07;4.20;;;;;;;14.55;64.59;98473.94;5034371;28;20029;-80
2023/03/25 10:34:02;;;;;;;11.13;7.30;;;;;;;14.82;64.78;98481.31;5034409;28;20033;-80
2023/03/25 10:36:37;;;;;;;;;;;;;;;15.09;64.50;98472.13;5034566;28;20025;-80
2023/03/25 10:39:10;;;;;;;5.13;2.92;;;;;;;15.23;63.88;98456.88;5034288;28;19912;-80
2023/03/25 10:41:38;;;;;;;3.38;1.88;;;;;;;15.32;62.83;98450.00;5033911;28;20053;-80
2023/03/25 10:44:10;;;;;;;2.53;1.80;;;;;;;15.22;62.28;98439.47;5034111;28;20095;-80
2023/03/25 10:46:49;;;;;;;3.25;2.38;;;;;;;15.20;63.47;98462.38;5033970;28;20029;-80
2023/03/25 10:49:17;;;;;;;3.22;2.00;;;;;;;15.20;63.55;98437.94;5033886;28;20040;-80
2023/03/25 10:51:44;;;;;;;3.38;1.85;;;;;;;15.26;62.00;98423.50;5034282;28;20025;-80
2023/03/25 10:54:12;;;;;;;2.28;1.98;;;;;;;15.47;61.36;98438.22;5034348;28;20029;-80
2023/03/25 10:56:53;;;;;;;2.42;1.83;;;;;;;15.51;60.89;98435.34;5033891;28;20032;-79
2023/03/25 10:59:26;;;;;;;3.28;2.00;;;;;;;15.71;61.45;98445.78;5033892;28;20083;-80
2023/03/25 11:01:53;;;;;;;2.47;1.70;;;;;;;15.55;61.91;98431.47;5033774;28;20474;-80
2023/03/25 11:04:20;;;;;;;3.25;1.70;;;;;;;15.38;61.20;98444.25;5034029;28;20029;-80
2023/03/25 11:06:52;;;;;;;2.38;1.65;;;;;;;15.32;60.87;98436.06;5033509;28;20045;-80
2023/03/25 11:09:33;;;;;;;2.78;1.70;;;;;;;15.31;61.64;98437.03;5033683;28;20065;-80
2023/03/25 11:12:00;;;;;;;3.92;2.15;;;;;;;15.50;61.13;98408.25;5032803;28;20026;-80
2023/03/25 11:14:27;;;;;;;2.35;1.85;;;;;;;15.78;61.70;98434.75;5033504;28;20030;-80
2023/03/25 11:16:59;;;;;;;1.70;1.60;;;;;;;15.88;60.38;98419.84;5033846;28;20022;-80
2023/03/25 11:19:31;;;;;;;3.13;1.60;;;;;;;15.93;59.70;98421.13;5033541;28;20042;-80
2023/03/25 11:22:09;;;;;;;3.13;1.88;;;;;;;15.82;58.04;98431.72;5033589;28;20051;-80
2023/03/25 11:24:41;;;;;;;2.25;1.88;;;;;;;15.62;58.25;98406.34;5033050;28;20069;-80
2023/03/25 11:27:07;;;;;;;1.50;1.40;;;;;;;15.70;58.72;98422.28;5032294;28;20359;-80
2023/03/25 11:29:35;;;;;;;3.22;1.65;;;;;;;15.88;58.38;98422.47;5033200;28;20022;-80
2023/03/25 11:32:06;;;;;;;2.08;1.75;;;;;;;15.90;57.93;98428.44;5033487;28;20037;-80
2023/03/25 11:34:40;;;;;;;3.58;1.52;;;;;;;15.80;58.15;98402.16;5033157;28;20108;-80
2023/03/25 11:37:15;;;;;;;3.47;2.00;;;;;;;15.95;57.81;98421.81;5033228;28;20018;-78
2023/03/25 11:39:42;;;;;;;2.70;1.40;;;;;;;15.89;57.39;98409.22;5033176;28;20033;-78
2023/03/25 11:42:31;;;;;;;1.98;1.27;;;;;;;15.88;56.63;98386.53;5033261;28;20039;-78